createdAt,value
2019-02-25T00:02:08.229Z,16.10
2019-02-25T00:04:45.687Z,16.23
2019-02-25T00:07:33.476Z,15.73
2019-02-25T00:10:24.375Z,15.53
2019-02-25T00:13:04.982Z,15.70
2019-02-25T00:15:46.314Z,15.53
2019-02-25T00:18:29.884Z,14.03
2019-02-25T00:21:12.442Z,13.87
2019-02-25T00:24:00.516Z,14.73
2019-02-25T00:26:32.974Z,14.23
2019-02-25T00:32:36.403Z,12.93
2019-02-25T00:35:18.619Z,15.47
2019-02-25T00:37:57.290Z,14.27
2019-02-25T00:40:40.313Z,14.50
2019-02-25T00:43:18.460Z,13.17
2019-02-25T00:46:10.250Z,13.00
2019-02-25T00:48:46.143Z,12.80
2019-02-25T00:51:30.129Z,15.00
2019-02-25T00:54:02.084Z,13.70
2019-02-25T00:56:36.692Z,14.97
2019-02-25T00:59:12.050Z,13.73
2019-02-25T01:01:47.032Z,14.80
2019-02-25T01:04:26.751Z,13.73
2019-02-25T01:07:02.691Z,14.47
2019-02-25T01:09:42.961Z,14.55
2019-02-25T01:12:16.551Z,13.90
2019-02-25T01:14:53.410Z,13.77
2019-02-25T01:17:31.143Z,13.20
2019-02-25T01:20:09.443Z,14.23
2019-02-25T01:22:46.248Z,11.80
2019-02-25T01:25:20.858Z,13.60
2019-02-25T01:27:54.233Z,13.93
2019-02-25T01:30:26.098Z,15.03
2019-02-25T01:32:57.313Z,14.90
2019-02-25T01:35:34.294Z,15.00
2019-02-25T01:38:06.289Z,13.67
2019-02-25T01:40:39.866Z,14.20
2019-02-25T01:43:16.339Z,13.23
2019-02-25T01:45:47.517Z,12.83
2019-02-25T01:48:22.233Z,13.30
2019-02-25T01:50:59.114Z,13.00
2019-02-25T01:53:33.234Z,12.07
2019-02-25T01:56:11.630Z,13.30
2019-02-25T01:58:49.269Z,13.40
2019-02-25T02:01:22.997Z,13.77
2019-02-25T02:04:05.976Z,13.20
2019-02-25T02:06:46.334Z,13.63
2019-02-25T02:09:17.779Z,14.47
2019-02-25T02:11:50.089Z,12.77
2019-02-25T02:14:21.769Z,12.10
2019-02-25T02:16:57.463Z,13.20
2019-02-25T02:19:29.322Z,13.43
2019-02-25T02:22:03.758Z,13.20
2019-02-25T02:24:35.825Z,13.67
2019-02-25T02:27:11.997Z,13.40
2019-02-25T02:29:44.680Z,13.93
2019-02-25T02:32:17.515Z,14.80
2019-02-25T02:34:50.527Z,12.97
2019-02-25T02:37:24.740Z,15.20
2019-02-25T02:39:59.841Z,13.80
2019-02-25T02:42:31.943Z,13.33
2019-02-25T02:45:23.285Z,12.10
2019-02-25T02:48:07.124Z,12.80
2019-02-25T02:50:39.020Z,12.40
2019-02-25T02:53:13.645Z,13.70
2019-02-25T02:55:45.016Z,12.50
2019-02-25T02:58:17.366Z,13.60
2019-02-25T03:00:52.901Z,12.67
2019-02-25T03:03:32.612Z,12.70
2019-02-25T03:06:06.330Z,13.93
2019-02-25T03:08:46.411Z,14.90
2019-02-25T03:11:19.881Z,12.93
2019-02-25T03:13:53.342Z,13.90
2019-02-25T03:16:26.136Z,14.03
2019-02-25T03:19:10.499Z,12.97
2019-02-25T03:21:41.840Z,12.03
2019-02-25T03:24:14.193Z,13.70
2019-02-25T03:26:54.679Z,12.87
2019-02-25T03:29:27.956Z,13.50
2019-02-25T03:32:04.821Z,13.93
2019-02-25T03:34:43.305Z,14.17
2019-02-25T03:37:21.430Z,14.05
2019-02-25T03:39:57.535Z,14.00
2019-02-25T03:42:32.301Z,13.47
2019-02-25T03:45:11.500Z,13.63
2019-02-25T03:47:43.470Z,12.80
2019-02-25T03:50:17.075Z,12.55
2019-02-25T03:52:52.131Z,13.70
2019-02-25T03:55:29.892Z,12.60
2019-02-25T03:58:01.854Z,13.70
2019-02-25T04:00:34.637Z,12.47
2019-02-25T04:03:07.495Z,12.17
2019-02-25T04:05:53.124Z,12.87
2019-02-25T04:08:25.948Z,12.73
2019-02-25T04:10:59.324Z,12.10
2019-02-25T04:13:32.075Z,11.57
2019-02-25T04:16:03.202Z,12.63
2019-02-25T04:18:36.379Z,12.00
2019-02-25T04:21:10.424Z,12.20
2019-02-25T04:23:48.925Z,13.07
2019-02-25T04:26:21.709Z,12.53
2019-02-25T04:29:02.441Z,12.57
2019-02-25T04:31:36.441Z,13.20
2019-02-25T04:34:14.740Z,14.23
2019-02-25T04:36:46.057Z,13.50
2019-02-25T04:39:25.781Z,12.90
2019-02-25T04:42:04.715Z,12.33
2019-02-25T04:44:37.567Z,13.63
2019-02-25T04:47:14.307Z,12.90
2019-02-25T04:49:56.631Z,13.90
2019-02-25T04:52:28.537Z,11.93
2019-02-25T04:55:02.832Z,12.87
2019-02-25T04:57:37.874Z,12.87
2019-02-25T05:00:15.315Z,11.80
2019-02-25T05:02:50.460Z,13.73
2019-02-25T05:05:33.069Z,14.63
2019-02-25T05:08:13.072Z,14.70
2019-02-25T05:10:48.247Z,14.10
2019-02-25T05:13:26.784Z,13.30
2019-02-25T05:15:57.637Z,14.80
2019-02-25T05:18:33.992Z,14.70
2019-02-25T05:21:04.873Z,11.77
2019-02-25T05:23:43.618Z,13.60
2019-02-25T05:26:19.372Z,12.70
2019-02-25T05:28:50.480Z,13.57
2019-02-25T05:31:27.950Z,12.57
2019-02-25T05:34:41.816Z,12.33
2019-02-25T05:37:26.417Z,16.90
2019-02-25T05:40:16.830Z,13.10
2019-02-25T05:42:52.361Z,15.13
2019-02-25T05:45:27.388Z,15.03
2019-02-25T05:48:14.868Z,14.73
2019-02-25T06:09:53.200Z,18.90
2019-02-25T06:13:17.253Z,14.27
2019-02-25T06:15:27.642Z,15.13
2019-02-25T06:18:14.185Z,14.10
2019-02-25T06:21:19.362Z,14.80
2019-02-25T06:24:47.042Z,17.87
2019-02-25T06:30:20.268Z,15.70
2019-02-25T06:33:22.674Z,16.10
2019-02-25T06:36:03.409Z,14.90
2019-02-25T06:39:12.276Z,15.00
2019-02-25T06:41:56.278Z,15.00
2019-02-25T06:44:36.365Z,14.73
2019-02-25T06:47:35.735Z,23.70
2019-02-25T06:50:17.893Z,15.50
2019-02-25T06:52:52.179Z,14.50
2019-02-25T06:55:30.288Z,15.23
2019-02-25T06:58:29.371Z,24.97
2019-02-25T07:01:05.094Z,18.23
2019-02-25T07:04:25.418Z,15.00
2019-02-25T07:07:38.068Z,16.53
2019-02-25T07:10:53.314Z,15.60
2019-02-25T07:14:06.927Z,17.90
2019-02-25T07:17:15.353Z,18.23
2019-02-25T07:20:28.842Z,17.10
2019-02-25T07:23:37.715Z,15.13
2019-02-25T07:26:45.413Z,14.07
2019-02-25T07:29:54.834Z,15.33
2019-02-25T07:33:09.914Z,15.33
2019-02-25T07:36:17.178Z,16.97
2019-02-25T07:42:47.206Z,20.07
2019-02-25T07:45:51.219Z,18.80
2019-02-25T07:48:44.049Z,21.13
2019-02-25T07:51:42.169Z,22.10
2019-02-25T07:54:37.417Z,17.80
2019-02-25T07:57:31.008Z,17.02
2019-02-25T08:00:45.206Z,14.17
2019-02-25T08:03:45.862Z,14.37
2019-02-25T08:06:37.786Z,13.30
2019-02-25T08:09:24.758Z,15.80
2019-02-25T08:12:16.915Z,14.90
2019-02-25T08:15:20.399Z,15.00
2019-02-25T08:18:22.001Z,17.10
2019-02-25T08:21:35.674Z,17.07
2019-02-25T08:24:40.729Z,17.43
2019-02-25T08:27:37.068Z,17.77
2019-02-25T08:30:41.235Z,19.97
2019-02-25T08:33:34.354Z,18.80
2019-02-25T08:37:02.567Z,18.90
2019-02-25T08:39:54.347Z,17.60
2019-02-25T08:46:25.456Z,19.53
2019-02-25T08:49:33.411Z,18.07
2019-02-25T08:52:34.481Z,18.27
2019-02-25T08:55:33.798Z,19.90
2019-02-25T08:58:42.759Z,17.03
2019-02-25T09:01:38.419Z,18.93
2019-02-25T09:04:40.543Z,17.63
2019-02-25T09:07:32.346Z,18.87
2019-02-25T09:10:48.956Z,16.47
2019-02-25T09:14:15.241Z,16.60
2019-02-25T09:16:49.592Z,17.97
2019-02-25T09:19:42.189Z,18.70
2019-02-25T09:22:59.314Z,17.90
2019-02-25T09:25:42.003Z,18.80
2019-02-25T09:28:57.211Z,16.47
2019-02-25T09:31:42.229Z,16.07
2019-02-25T09:35:04.318Z,15.23
2019-02-25T09:38:26.086Z,15.83
2019-02-25T09:45:35.987Z,14.17
2019-02-25T09:48:49.953Z,9.47
2019-02-25T09:52:10.519Z,8.98
2019-02-25T09:55:04.575Z,10.23
2019-02-25T09:57:44.729Z,8.40
2019-02-25T10:03:36.456Z,7.90
2019-02-25T10:06:34.729Z,6.23
2019-02-25T10:09:12.929Z,6.50
2019-02-25T10:14:45.156Z,6.50
2019-02-25T10:17:27.328Z,6.53
2019-02-25T10:20:18.848Z,7.40
2019-02-25T10:23:07.943Z,6.50
2019-02-25T10:25:51.578Z,5.47
2019-02-25T10:29:03.932Z,6.17
2019-02-25T10:32:12.291Z,6.90
2019-02-25T10:34:47.726Z,6.80
2019-02-25T10:37:34.193Z,27.00
2019-02-25T10:40:27.513Z,7.73
2019-02-25T10:46:49.016Z,8.18
2019-02-25T10:50:40.922Z,7.03
2019-02-25T10:52:30.398Z,7.60
2019-02-25T10:55:18.051Z,7.10
2019-02-25T10:58:01.437Z,8.20
2019-02-25T11:00:47.044Z,7.93
2019-02-25T11:04:07.506Z,9.07
2019-02-25T11:07:07.892Z,7.80
2019-02-25T11:10:16.034Z,9.90
2019-02-25T11:13:04.360Z,10.60
2019-02-25T11:16:05.064Z,9.07
2019-02-25T11:19:09.641Z,8.87
2019-02-25T11:22:08.320Z,7.60
2019-02-25T11:25:00.815Z,7.53
2019-02-25T11:28:07.070Z,11.10
2019-02-25T11:30:58.372Z,6.50
2019-02-25T11:36:55.513Z,5.40
2019-02-25T11:40:06.887Z,6.07
2019-02-25T11:43:27.995Z,5.50
2019-02-25T11:46:25.809Z,6.27
2019-02-25T11:49:37.760Z,6.00
2019-02-25T11:52:34.355Z,5.60
2019-02-25T11:56:00.809Z,4.97
2019-02-25T11:58:46.986Z,5.93
2019-02-25T12:01:37.275Z,5.73
2019-02-25T12:04:15.317Z,5.60
2019-02-25T12:06:56.313Z,3.95
2019-02-25T12:10:12.622Z,4.87
2019-02-25T12:13:26.069Z,5.67
2019-02-25T12:16:04.406Z,4.43
2019-02-25T12:18:45.959Z,5.83
2019-02-25T12:21:55.670Z,4.80
2019-02-25T12:24:58.283Z,4.37
2019-02-25T12:28:05.482Z,4.53
2019-02-25T12:31:10.180Z,3.90
2019-02-25T12:34:07.174Z,5.20
2019-02-25T12:37:13.362Z,6.23
2019-02-25T12:40:19.895Z,4.13
2019-02-25T12:43:07.570Z,4.60
2019-02-25T12:46:17.692Z,4.40
2019-02-25T12:49:09.063Z,4.07
2019-02-25T12:51:59.700Z,3.77
2019-02-25T12:55:07.002Z,2.93
2019-02-25T12:57:45.085Z,2.97
2019-02-25T13:00:49.549Z,4.17
2019-02-25T13:03:46.320Z,2.80
2019-02-25T13:06:38.994Z,5.97
2019-02-25T13:09:33.421Z,3.17
2019-02-25T13:12:38.502Z,3.07
2019-02-25T13:15:40.758Z,3.73
2019-02-25T13:18:33.942Z,3.30
2019-02-25T13:21:46.127Z,2.90
2019-02-25T13:24:43.774Z,3.10
2019-02-25T13:27:34.243Z,3.20
2019-02-25T13:30:34.579Z,2.53
2019-02-25T13:33:48.747Z,3.20
2019-02-25T13:40:01.555Z,2.87
2019-02-25T13:43:04.470Z,2.80
2019-02-25T13:46:09.128Z,2.53
2019-02-25T13:49:46.410Z,2.73
2019-02-25T13:53:41.918Z,3.10
2019-02-25T13:56:40.498Z,2.90
2019-02-25T14:02:52.823Z,3.07
2019-02-25T14:05:52.152Z,2.97
2019-02-25T14:12:04.086Z,3.47
2019-02-25T14:14:54.383Z,2.90
2019-02-25T14:17:54.942Z,3.17
2019-02-25T14:20:42.096Z,3.73
2019-02-25T14:23:40.524Z,4.00
2019-02-25T14:26:30.351Z,3.60
2019-02-25T14:29:26.490Z,2.87
2019-02-25T14:34:17.035Z,2.80
2019-02-25T14:35:14.484Z,4.03
2019-02-25T14:41:31.607Z,6.47
2019-02-25T14:44:21.903Z,3.60
2019-02-25T14:53:59.201Z,3.17
2019-02-25T14:56:59.133Z,2.20
2019-02-25T14:59:51.403Z,3.00
2019-02-25T15:02:50.450Z,2.00
2019-02-25T15:05:36.214Z,2.70
2019-02-25T15:08:13.598Z,2.93
2019-02-25T15:11:14.271Z,3.47
2019-02-25T15:14:00.043Z,2.83
2019-02-25T15:17:05.690Z,2.73
2019-02-25T15:20:18.608Z,3.80
2019-02-25T15:23:18.911Z,3.30
2019-02-25T15:26:15.631Z,4.10
2019-02-25T15:29:44.619Z,4.03
2019-02-25T16:47:32.825Z,5.30
2019-02-25T16:50:41.524Z,4.60
2019-02-25T16:54:00.043Z,5.90
2019-02-25T16:57:22.814Z,7.47
2019-02-25T17:04:00.785Z,8.30
2019-02-25T17:28:42.630Z,7.80
2019-02-25T17:32:32.687Z,7.30
2019-02-25T17:35:39.096Z,7.40
2019-02-25T17:38:59.044Z,9.10
2019-02-25T17:49:31.671Z,6.67
2019-02-25T17:59:59.247Z,9.23
2019-02-25T18:03:19.493Z,7.87
2019-02-25T18:11:20.725Z,7.75
2019-02-25T18:14:17.544Z,14.00
2019-02-25T18:17:31.725Z,11.47
2019-02-25T18:23:44.223Z,9.30
2019-02-25T18:38:16.673Z,9.40
2019-02-25T18:42:25.561Z,11.03
2019-02-25T18:57:26.903Z,12.70
2019-02-25T19:04:07.394Z,10.70
2019-02-25T19:08:09.625Z,12.10
2019-02-25T19:18:57.712Z,11.20
2019-02-25T19:22:25.252Z,11.27
2019-02-25T19:32:54.459Z,12.00
2019-02-25T19:39:39.062Z,14.67
2019-02-25T19:42:56.853Z,11.57
2019-02-25T19:45:48.764Z,10.57
2019-02-25T19:53:22.340Z,11.70
2019-02-25T20:04:57.800Z,14.83
2019-02-25T20:08:37.106Z,13.90
2019-02-25T20:12:25.745Z,14.00
2019-02-25T20:18:42.752Z,13.23
2019-02-25T20:22:14.670Z,13.70
2019-02-25T20:25:01.249Z,11.70
2019-02-25T20:28:12.895Z,11.75
2019-02-25T20:31:20.620Z,12.63
2019-02-25T20:34:25.930Z,12.60
2019-02-25T20:40:39.554Z,14.23
2019-02-25T20:43:44.509Z,13.10
2019-02-25T20:46:38.838Z,12.80
2019-02-25T20:50:21.387Z,13.83
2019-02-25T20:52:43.004Z,14.50
2019-02-25T20:55:33.991Z,13.30
2019-02-25T20:58:25.324Z,12.60
2019-02-25T21:01:16.354Z,12.80
2019-02-25T21:04:04.201Z,14.05
2019-02-25T21:06:53.167Z,12.80
2019-02-25T21:09:52.810Z,13.70
2019-02-25T21:12:46.377Z,13.30
2019-02-25T21:15:28.312Z,13.70
2019-02-25T21:18:20.339Z,13.33
2019-02-25T21:21:16.226Z,15.03
2019-02-25T21:24:17.489Z,15.23
2019-02-25T21:27:01.477Z,15.10
2019-02-25T21:32:49.658Z,20.37
2019-02-25T21:35:51.376Z,15.10
2019-02-25T21:38:51.701Z,15.83
2019-02-25T21:41:31.502Z,15.03
2019-02-25T21:44:14.359Z,15.65
2019-02-25T21:46:52.245Z,14.33
2019-02-25T21:49:55.021Z,14.33
2019-02-25T21:52:43.452Z,13.43
2019-02-25T21:55:28.707Z,12.93
2019-02-25T21:58:22.842Z,14.33
2019-02-25T22:01:08.146Z,15.23
2019-02-25T22:03:48.053Z,15.77
2019-02-25T22:06:29.148Z,19.77
2019-02-25T22:09:36.047Z,18.87
2019-02-25T22:12:20.328Z,18.53
2019-02-25T22:15:34.005Z,18.63
2019-02-25T22:18:19.579Z,19.37
2019-02-25T22:21:09.192Z,20.37
2019-02-25T22:24:01.361Z,17.27
2019-02-25T22:26:41.388Z,41.70
2019-02-25T22:29:19.182Z,23.20
2019-02-25T22:31:54.850Z,21.97
2019-02-25T22:34:37.644Z,21.63
2019-02-25T22:37:29.273Z,22.37
2019-02-25T22:40:10.239Z,19.13
2019-02-25T22:43:01.118Z,21.20
2019-02-25T22:45:47.941Z,20.50
2019-02-25T22:48:28.481Z,20.50
2019-02-25T22:51:09.237Z,20.67
2019-02-25T22:53:51.055Z,22.40
2019-02-25T22:56:51.390Z,20.23
2019-02-25T22:59:35.011Z,22.07
2019-02-25T23:02:20.400Z,17.90
2019-02-25T23:04:58.533Z,18.23
2019-02-25T23:07:48.138Z,15.93
2019-02-25T23:10:24.511Z,16.60
2019-02-25T23:12:59.878Z,18.42
2019-02-25T23:15:44.315Z,15.93
2019-02-25T23:18:36.144Z,16.77
2019-02-25T23:21:11.112Z,15.27
2019-02-25T23:24:05.687Z,15.00
2019-02-25T23:26:48.758Z,14.80
2019-02-25T23:29:30.205Z,16.13
2019-02-25T23:32:39.409Z,16.50
2019-02-25T23:35:35.440Z,14.73
2019-02-25T23:38:29.458Z,14.47
2019-02-25T23:41:39.494Z,14.27
2019-02-25T23:44:29.613Z,13.63
2019-02-25T23:47:12.793Z,17.10
2019-02-25T23:50:20.019Z,16.37
2019-02-25T23:53:26.618Z,15.20
2019-02-25T23:56:01.615Z,18.80
2019-02-25T23:59:01.751Z,16.13
